Climatologie pour Saint-Brevin les Pins
Jour • Résumé pour février 11, 2018 Système :  Anglais    Métrique   Mixte
« - 1 jour
+ 1 jour »
Jour Semaine Mois Année Personnalisé
  Maximum : Minimum : Moyenne :
Température sous abri : 52.2 °F 34.9 °F 45.7 °F
Point de rosée : 49.6 °F 32.2 °F 42.1 °F
Humidité : 98% 70% 88%
Vitesse du vent : 18mph 0mph 4.8mph
Rafale : 20mph - -
Direction - - NW
Pression : 30.1 in 29.8 in -
Précipitations : 0.02 in    
Historical Graphs
 
 
Tableau de données pour février 11, 2018
Heure Tempé Pt rosée Pression Vent Vitesse Rafale Humidité Taux pluie (/hr) Soleil
00:00 49.6 °F 49.1 °F 29.9 in West 6 mph 20 mph 98% 0.03 in 0 W/m2
00:05 49.6 °F 49.1 °F 29.9 in West 8 mph 15 mph 98% 0.03 in 0 W/m2
00:10 49.8 °F 49.3 °F 29.9 in NW 10 mph 16 mph 98% 0.03 in 0 W/m2
00:15 49.8 °F 49.3 °F 29.9 in West 7 mph 16 mph 98% 0.03 in 0 W/m2
00:20 49.8 °F 49.3 °F 29.9 in West 5 mph 18 mph 98% 0.03 in 0 W/m2
00:25 49.8 °F 49.3 °F 29.9 in West 7 mph 18 mph 98% 0.02 in 0 W/m2
00:30 49.8 °F 49.3 °F 29.9 in WNW 7 mph 18 mph 98% 0.02 in 0 W/m2
00:35 49.8 °F 49.3 °F 29.9 in WSW 7 mph 18 mph 98% 0.02 in 0 W/m2
00:40 50 °F 49.5 °F 29.9 in WNW 9 mph 20 mph 98% 0.01 in 0 W/m2
00:45 50.2 °F 49.6 °F 29.9 in WSW 5 mph 20 mph 98% 0.01 in 0 W/m2
00:50 49.8 °F 49.3 °F 29.9 in WSW 4 mph 14 mph 98% 0 in 0 W/m2
00:55 50 °F 49.5 °F 29.9 in WNW 5 mph 14 mph 98% 0 in 0 W/m2
01:00 50 °F 49.5 °F 29.9 in NW 7 mph 14 mph 98% 0 in 0 W/m2
01:10 50 °F 49.5 °F 29.8 in West 5 mph 13 mph 98% 0 in 0 W/m2
01:15 50 °F 49.5 °F 29.8 in WNW 5 mph 10 mph 98% 0 in 0 W/m2
01:20 49.8 °F 49.3 °F 29.8 in NW 9 mph 10 mph 98% 0 in 0 W/m2
01:25 49.8 °F 49.3 °F 29.8 in WNW 7 mph 12 mph 98% 0 in 0 W/m2
01:30 49.8 °F 49.3 °F 29.8 in WNW 4 mph 12 mph 98% 0 in 0 W/m2
01:35 50 °F 49.5 °F 29.8 in West 6 mph 10 mph 98% 0 in 0 W/m2
01:40 49.8 °F 49.3 °F 29.8 in West 2 mph 11 mph 98% 0 in 0 W/m2
01:45 50 °F 49.5 °F 29.8 in WSW 5 mph 12 mph 98% 0 in 0 W/m2
01:50 50 °F 49.5 °F 29.8 in WNW 4 mph 13 mph 98% 0 in 0 W/m2
01:55 50 °F 49.5 °F 29.8 in WSW 6 mph 14 mph 98% 0 in 0 W/m2
02:00 50 °F 49.5 °F 29.8 in WNW 4 mph 15 mph 98% 0 in 0 W/m2
02:05 50 °F 49.5 °F 29.8 in WNW 2 mph 15 mph 98% 0 in 0 W/m2
02:10 49.8 °F 49.3 °F 29.8 in West 2 mph 12 mph 98% 0 in 0 W/m2
02:15 49.8 °F 49.3 °F 29.8 in West 8 mph 12 mph 98% 0 in 0 W/m2
02:20 49.6 °F 49.1 °F 29.8 in WNW 8 mph 14 mph 98% 0 in 0 W/m2
02:25 49.6 °F 49.1 °F 29.8 in NW 7 mph 14 mph 98% 0 in 0 W/m2
02:30 49.6 °F 49.1 °F 29.8 in West 2 mph 9 mph 98% 0 in 0 W/m2
02:35 49.8 °F 49.3 °F 29.8 in WNW 6 mph 13 mph 98% 0 in 0 W/m2
02:40 49.8 °F 49.3 °F 29.8 in WNW 3 mph 13 mph 98% 0 in 0 W/m2
02:45 50 °F 49.5 °F 29.8 in West 6 mph 13 mph 98% 0 in 0 W/m2
02:50 49.8 °F 49.3 °F 29.8 in WNW 4 mph 13 mph 98% 0.01 in 0 W/m2
02:55 49.8 °F 49.3 °F 29.8 in West 6 mph 13 mph 98% 0.01 in 0 W/m2
03:00 49.8 °F 49.3 °F 29.8 in WNW 9 mph 12 mph 98% 0.01 in 0 W/m2
03:05 49.8 °F 49.3 °F 29.8 in WNW 6 mph 16 mph 98% 0.01 in 0 W/m2
03:10 49.8 °F 49.3 °F 29.8 in West 4 mph 16 mph 98% 0.01 in 0 W/m2
03:15 49.8 °F 49.3 °F 29.8 in WNW 5 mph 11 mph 98% 0.01 in 0 W/m2
03:20 49.8 °F 49.3 °F 29.8 in West 5 mph 12 mph 98% 0.01 in 0 W/m2
03:25 49.8 °F 49.3 °F 29.8 in WNW 2 mph 14 mph 98% 0.01 in 0 W/m2
03:30 49.8 °F 49.3 °F 29.8 in West 4 mph 14 mph 98% 0.01 in 0 W/m2
03:35 49.8 °F 49.3 °F 29.8 in WNW 6 mph 13 mph 98% 0.01 in 0 W/m2
03:40 49.8 °F 49.3 °F 29.8 in NW 4 mph 13 mph 98% 0.02 in 0 W/m2
03:45 49.8 °F 49.3 °F 29.8 in WNW 2 mph 13 mph 98% 0.01 in 0 W/m2
03:50 49.8 °F 49.3 °F 29.8 in WNW 8 mph 13 mph 98% 0.01 in 0 W/m2
03:55 49.8 °F 49.3 °F 29.8 in WNW 4 mph 15 mph 98% 0.01 in 0 W/m2
04:00 49.6 °F 49.1 °F 29.8 in WNW 3 mph 15 mph 98% 0.01 in 0 W/m2
04:05 49.8 °F 49.3 °F 29.8 in NW 7 mph 13 mph 98% 0.01 in 0 W/m2
04:10 49.8 °F 49.3 °F 29.8 in WNW 6 mph 14 mph 98% 0.01 in 0 W/m2
04:15 49.8 °F 49.3 °F 29.8 in WSW 4 mph 14 mph 98% 0.02 in 0 W/m2
04:20 49.8 °F 49.3 °F 29.8 in WNW 4 mph 13 mph 98% 0.02 in 0 W/m2
04:25 50 °F 49.5 °F 29.8 in WNW 9 mph 13 mph 98% 0.02 in 0 W/m2
04:30 49.8 °F 49.3 °F 29.8 in WNW 5 mph 14 mph 98% 0.02 in 0 W/m2
04:35 49.8 °F 49.3 °F 29.8 in WNW 9 mph 16 mph 98% 0.02 in 0 W/m2
04:40 49.8 °F 49.3 °F 29.8 in West 14 mph 17 mph 98% 0.01 in 0 W/m2
04:45 50 °F 49.5 °F 29.8 in NW 2 mph 17 mph 98% 0.01 in 0 W/m2
04:50 50 °F 49.5 °F 29.8 in NW 6 mph 17 mph 98% 0.01 in 0 W/m2
04:55 49.8 °F 49.3 °F 29.8 in NW 13 mph 15 mph 98% 0.01 in 0 W/m2
05:00 49.5 °F 48.9 °F 29.8 in WNW 5 mph 17 mph 98% 0.01 in 0 W/m2
05:05 49.3 °F 48.7 °F 29.8 in NW 5 mph 17 mph 98% 0.01 in 0 W/m2
05:10 48.9 °F 48.4 °F 29.8 in WNW 8 mph 15 mph 98% 0.01 in 0 W/m2
05:15 48.7 °F 48.2 °F 29.8 in NW 6 mph 15 mph 98% 0 in 0 W/m2
05:20 48.7 °F 48.2 °F 29.8 in West 8 mph 13 mph 98% 0 in 0 W/m2
05:25 48.7 °F 48.2 °F 29.8 in NNW 1 mph 15 mph 98% 0 in 0 W/m2
05:30 48.7 °F 48.2 °F 29.8 in NW 4 mph 15 mph 98% 0 in 0 W/m2
05:35 48.6 °F 48 °F 29.8 in NW 2 mph 13 mph 98% 0 in 0 W/m2
05:40 48.4 °F 47.8 °F 29.8 in NW 4 mph 13 mph 98% 0 in 0 W/m2
05:45 48.4 °F 47.8 °F 29.8 in WNW 4 mph 13 mph 98% 0 in 0 W/m2
05:50 48 °F 47.5 °F 29.8 in NW 7 mph 12 mph 98% 0 in 0 W/m2
05:55 48 °F 47.5 °F 29.8 in NW 8 mph 12 mph 98% 0 in 0 W/m2
06:00 47.8 °F 47.3 °F 29.8 in WNW 5 mph 10 mph 98% 0 in 0 W/m2
06:05 47.7 °F 47.1 °F 29.8 in WNW 7 mph 9 mph 98% 0 in 0 W/m2
06:10 47.7 °F 47.1 °F 29.8 in NW 4 mph 12 mph 98% 0 in 0 W/m2
06:15 47.5 °F 46.9 °F 29.8 in NNW 8 mph 12 mph 98% 0 in 0 W/m2
06:20 47.5 °F 46.9 °F 29.8 in NNW 5 mph 8 mph 98% 0 in 0 W/m2
06:25 47.5 °F 46.9 °F 29.8 in NNW 4 mph 8 mph 98% 0 in 0 W/m2
06:30 47.1 °F 46.6 °F 29.8 in NNW 5 mph 14 mph 98% 0 in 0 W/m2
06:35 46.8 °F 45.9 °F 29.8 in NW 5 mph 14 mph 97% 0 in 0 W/m2
06:40 45.9 °F 45 °F 29.8 in NW 3 mph 13 mph 97% 0 in 0 W/m2
06:45 45 °F 44.2 °F 29.8 in NW 3 mph 13 mph 97% 0 in 0 W/m2
06:50 44.2 °F 43.5 °F 29.9 in NW 9 mph 11 mph 97% 0 in 0 W/m2
06:55 43.9 °F 43.2 °F 29.9 in NW 2 mph 11 mph 97% 0 in 0 W/m2
07:00 43.9 °F 43 °F 29.9 in NW 6 mph 14 mph 97% 0 in 0 W/m2
07:05 44.1 °F 43.2 °F 29.9 in NW 6 mph 14 mph 97% 0 in 0 W/m2
07:10 44.1 °F 43.3 °F 29.9 in NW 2 mph 9 mph 97% 0 in 0 W/m2
07:15 44.1 °F 43.3 °F 29.9 in NNW 4 mph 8 mph 97% 0 in 0 W/m2
07:20 44.2 °F 43.5 °F 29.9 in NNW 1 mph 8 mph 97% 0 in 0 W/m2
07:25 44.8 °F 43.9 °F 29.9 in NW 6 mph 8 mph 97% 0 in 0 W/m2
07:30 44.8 °F 43.7 °F 29.9 in NW 4 mph 8 mph 96% 0 in 0 W/m2
07:35 44.6 °F 43.5 °F 29.9 in NW 1 mph 7 mph 96% 0 in 0 W/m2
07:40 44.4 °F 43.5 °F 29.9 in NNW 4 mph 7 mph 96% 0 in 0 W/m2
07:45 44.2 °F 43.2 °F 29.9 in NW 2 mph 6 mph 96% 0 in 0 W/m2
07:50 43.9 °F 42.6 °F 29.9 in WNW 3 mph 6 mph 95% 0 in 0 W/m2
07:55 43.5 °F 42.6 °F 29.9 in WNW 6 mph 8 mph 96% 0 in 0 W/m2
08:00 43.5 °F 42.4 °F 29.9 in NW 2 mph 8 mph 96% 0 in 0 W/m2
08:05 43.3 °F 42.1 °F 29.9 in WNW 2 mph 7 mph 95% 0 in 0 W/m2
08:10 43.3 °F 41.9 °F 29.9 in WNW 4 mph 7 mph 95% 0 in 0 W/m2
08:15 42.8 °F 41.5 °F 29.9 in WNW 3 mph 6 mph 95% 0 in 0 W/m2
08:20 42.6 °F 41.4 °F 29.9 in Calm   7 mph 95% 0 in 5 W/m2
08:25 43 °F 41.5 °F 29.9 in WNW 1 mph 7 mph 95% 0 in 5 W/m2
08:30 43 °F 41.5 °F 29.9 in WNW 3 mph 6 mph 95% 0 in 9 W/m2
08:35 43 °F 41.7 °F 29.9 in WNW 4 mph 8 mph 95% 0 in 12 W/m2
08:40 43.3 °F 41.9 °F 29.9 in NNW 6 mph 8 mph 95% 0 in 18 W/m2
08:45 43.5 °F 42.3 °F 29.9 in NW 2 mph 8 mph 95% 0 in 26 W/m2
08:50 43.9 °F 42.4 °F 29.9 in WNW 2 mph 8 mph 95% 0 in 28 W/m2
08:55 44.1 °F 42.8 °F 29.9 in NW 7 mph 7 mph 95% 0 in 33 W/m2
09:00 44.2 °F 42.6 °F 29.9 in WNW 3 mph 9 mph 94% 0 in 32 W/m2
09:05 44.1 °F 42.4 °F 29.9 in NW 7 mph 9 mph 94% 0 in 37 W/m2
09:10 44.1 °F 42.4 °F 29.9 in NW 6 mph 9 mph 94% 0 in 42 W/m2
09:15 44.1 °F 42.4 °F 29.9 in NW 4 mph 11 mph 94% 0 in 44 W/m2
09:20 44.2 °F 42.3 °F 29.9 in WNW 4 mph 11 mph 93% 0 in 53 W/m2
09:25 44.4 °F 42.4 °F 29.9 in WNW 4 mph 9 mph 93% 0 in 58 W/m2
09:30 44.4 °F 42.3 °F 29.9 in NW 4 mph 7 mph 92% 0 in 53 W/m2
09:35 44.4 °F 42.3 °F 29.9 in WNW 6 mph 8 mph 92% 0 in 62 W/m2
09:40 44.6 °F 42.4 °F 29.9 in WNW 3 mph 9 mph 92% 0 in 86 W/m2
09:45 45.1 °F 43 °F 29.9 in NW 3 mph 9 mph 92% 0 in 113 W/m2
09:50 45.3 °F 43 °F 29.9 in NW 6 mph 7 mph 91% 0 in 114 W/m2
09:55 45.7 °F 43 °F 29.9 in NW 5 mph 7 mph 90% 0 in 118 W/m2
10:00 45.9 °F 43 °F 29.9 in WNW 4 mph 9 mph 90% 0 in 118 W/m2
10:05 45.9 °F 42.8 °F 29.9 in NW 1 mph 9 mph 89% 0 in 127 W/m2
10:10 46 °F 42.6 °F 29.9 in NW 2 mph 8 mph 88% 0 in 134 W/m2
10:15 46 °F 42.8 °F 29.9 in Calm   8 mph 88% 0 in 195 W/m2
10:25 46.6 °F 42.8 °F 29.9 in Calm   8 mph 87% 0 in 114 W/m2
10:30 46.4 °F 42.4 °F 29.9 in WNW 3 mph 12 mph 86% 0 in 139 W/m2
10:35 46.4 °F 42.8 °F 29.9 in WNW 5 mph 12 mph 87% 0 in 162 W/m2
10:40 46.8 °F 43 °F 29.9 in WNW 4 mph 10 mph 87% 0 in 183 W/m2
10:45 46.9 °F 43 °F 29.9 in NNW 4 mph 10 mph 86% 0 in 265 W/m2
10:50 47.3 °F 43.3 °F 29.9 in NW 1 mph 9 mph 86% 0 in 253 W/m2
10:55 47.5 °F 43 °F 29.9 in WNW 5 mph 10 mph 84% 0 in 309 W/m2
11:00 47.5 °F 43 °F 29.9 in NW 5 mph 10 mph 84% 0 in 165 W/m2
11:05 47.3 °F 42.6 °F 29.9 in NW 3 mph 9 mph 84% 0 in 192 W/m2
11:10 47.1 °F 42.6 °F 29.9 in WNW 4 mph 12 mph 84% 0 in 202 W/m2
11:15 47.5 °F 42.4 °F 29.9 in WNW 4 mph 13 mph 83% 0 in 199 W/m2
11:20 47.7 °F 42.4 °F 29.9 in NNW 8 mph 13 mph 82% 0 in 197 W/m2
11:25 48 °F 43.2 °F 29.9 in WNW 5 mph 13 mph 83% 0 in 244 W/m2
11:30 48 °F 42.6 °F 29.9 in NW 7 mph 13 mph 81% 0 in 283 W/m2
11:35 49.1 °F 43.9 °F 29.9 in NNW 10 mph 13 mph 82% 0 in 304 W/m2
11:40 49.8 °F 43.7 °F 29.9 in NNW 5 mph 12 mph 79% 0 in 464 W/m2
11:45 49.6 °F 42.4 °F 29.9 in WNW 8 mph 12 mph 76% 0 in 250 W/m2
11:50 48.7 °F 41.5 °F 29.9 in NW 5 mph 12 mph 76% 0 in 195 W/m2
11:55 48.7 °F 42.1 °F 29.9 in WNW 6 mph 12 mph 78% 0 in 482 W/m2
12:00 49.8 °F 42.6 °F 29.9 in NNW 3 mph 11 mph 76% 0 in 445 W/m2
12:05 50.5 °F 42.6 °F 29.9 in WNW 7 mph 16 mph 74% 0 in 520 W/m2
12:10 50.5 °F 42.6 °F 29.9 in WNW 11 mph 16 mph 74% 0 in 538 W/m2
12:15 50.7 °F 42.4 °F 29.9 in NW 9 mph 16 mph 73% 0 in 462 W/m2
12:20 50.9 °F 42.6 °F 29.9 in WNW 8 mph 16 mph 73% 0 in 504 W/m2
12:25 50.5 °F 42.4 °F 29.9 in NW 7 mph 13 mph 74% 0 in 299 W/m2
12:30 50.2 °F 42.3 °F 29.9 in WNW 11 mph 15 mph 74% 0 in 258 W/m2
12:35 50.2 °F 42.4 °F 29.9 in WNW 4 mph 15 mph 75% 0 in 262 W/m2
12:40 49.8 °F 41.5 °F 29.9 in NW 5 mph 16 mph 73% 0 in 295 W/m2
12:45 49.8 °F 41.5 °F 29.9 in NW 6 mph 16 mph 73% 0 in 262 W/m2
12:50 49.8 °F 42.3 °F 29.9 in NW 4 mph 16 mph 75% 0 in 218 W/m2
12:55 49.6 °F 42.1 °F 29.9 in NNW 6 mph 13 mph 75% 0 in 223 W/m2
13:00 49.6 °F 42.3 °F 29.9 in WNW 9 mph 13 mph 76% 0 in 223 W/m2
13:05 49.6 °F 42.6 °F 29.9 in WNW 5 mph 13 mph 77% 0 in 272 W/m2
13:10 49.8 °F 43.3 °F 29.9 in NW 9 mph 13 mph 78% 0 in 308 W/m2
13:15 49.8 °F 42.6 °F 29.9 in WNW 6 mph 13 mph 76% 0 in 236 W/m2
13:20 49.5 °F 42.3 °F 29.9 in West 5 mph 15 mph 76% 0 in 162 W/m2
13:25 49.3 °F 41.9 °F 29.9 in West 4 mph 15 mph 76% 0 in 111 W/m2
13:30 48.9 °F 42.1 °F 29.9 in WNW 6 mph 12 mph 77% 0 in 114 W/m2
13:35 48.7 °F 41.9 °F 29.9 in West 8 mph 14 mph 77% 0 in 158 W/m2
13:40 48.7 °F 41.9 °F 29.9 in WNW 6 mph 16 mph 77% 0 in 211 W/m2
13:45 48.9 °F 41.7 °F 29.9 in West 5 mph 16 mph 76% 0 in 197 W/m2
13:50 49.5 °F 42.4 °F 29.9 in WNW 9 mph 16 mph 77% 0 in 237 W/m2
13:55 49.5 °F 42.3 °F 29.9 in WNW 12 mph 15 mph 76% 0 in 265 W/m2
14:00 49.6 °F 42.1 °F 29.9 in West 10 mph 15 mph 75% 0 in 274 W/m2
14:05 49.8 °F 42.3 °F 29.9 in NW 9 mph 15 mph 75% 0 in 269 W/m2
14:10 49.6 °F 41.4 °F 29.9 in West 10 mph 17 mph 73% 0 in 171 W/m2
14:15 49.5 °F 41.5 °F 29.9 in West 9 mph 17 mph 74% 0 in 306 W/m2
14:20 50.4 °F 41.7 °F 29.9 in NW 11 mph 17 mph 72% 0 in 554 W/m2
14:25 52.2 °F 44.2 °F 29.9 in WNW 9 mph 17 mph 74% 0 in 394 W/m2
14:30 51.4 °F 43.2 °F 29.9 in NNW 9 mph 16 mph 73% 0 in 246 W/m2
14:35 50.4 °F 40.8 °F 29.9 in West 6 mph 14 mph 70% 0 in 130 W/m2
14:40 49.5 °F 40.5 °F 29.9 in WNW 10 mph 17 mph 71% 0 in 188 W/m2
14:45 49.3 °F 41.2 °F 29.9 in WNW 10 mph 17 mph 74% 0 in 163 W/m2
14:50 48.7 °F 41.5 °F 29.9 in NW 18 mph 18 mph 76% 0 in 223 W/m2
14:55 48.6 °F 41.9 °F 29.9 in West 11 mph 18 mph 78% 0 in 142 W/m2
15:00 48.4 °F 41.4 °F 29.9 in WNW 8 mph 18 mph 77% 0 in 169 W/m2
15:05 48 °F 40.1 °F 29.9 in West 9 mph 15 mph 74% 0 in 153 W/m2
15:10 47.8 °F 40.3 °F 29.9 in West 4 mph 15 mph 75% 0 in 218 W/m2
15:15 47.8 °F 40.6 °F 29.9 in NW 4 mph 14 mph 76% 0 in 167 W/m2
15:20 47.5 °F 39.9 °F 29.9 in NW 4 mph 17 mph 75% 0 in 114 W/m2
15:25 47.1 °F 40.3 °F 29.9 in NW 14 mph 20 mph 77% 0 in 116 W/m2
15:30 46.9 °F 40.8 °F 29.9 in North 5 mph 20 mph 79% 0 in 111 W/m2
15:35 47.1 °F 41 °F 29.9 in NNW 8 mph 16 mph 79% 0 in 113 W/m2
15:40 47.1 °F 41 °F 29.9 in NW 11 mph 13 mph 79% 0 in 121 W/m2
15:45 47.1 °F 40.6 °F 29.9 in NW 7 mph 13 mph 78% 0 in 121 W/m2
15:50 47.3 °F 41.2 °F 29.9 in NW 8 mph 13 mph 79% 0 in 114 W/m2
15:55 47.3 °F 41.2 °F 29.9 in NNW 11 mph 11 mph 79% 0 in 123 W/m2
16:00 47.1 °F 40.6 °F 29.9 in WNW 6 mph 11 mph 78% 0 in 105 W/m2
16:05 47.1 °F 40.6 °F 29.9 in NNW 6 mph 11 mph 78% 0 in 113 W/m2
16:10 46.9 °F 39.6 °F 29.9 in NW 8 mph 16 mph 75% 0 in 77 W/m2
16:15 46.8 °F 39 °F 29.9 in WNW 2 mph 16 mph 74% 0 in 62 W/m2
16:20 46.8 °F 39.2 °F 29.9 in NNW 5 mph 16 mph 75% 0 in 90 W/m2
16:25 46.8 °F 39.6 °F 29.9 in NW 4 mph 16 mph 76% 0 in 104 W/m2
16:30 46.9 °F 40.1 °F 29.9 in WNW 6 mph 11 mph 77% 0 in 86 W/m2
16:35 46.8 °F 39.9 °F 29.9 in NW 2 mph 11 mph 77% 0 in 93 W/m2
16:40 46.9 °F 40.5 °F 29.9 in NW 6 mph 9 mph 78% 0 in 91 W/m2
16:45 46.8 °F 40.3 °F 29.9 in Calm   9 mph 78% 0 in 93 W/m2
16:50 46.8 °F 40.3 °F 29.9 in NW 2 mph 8 mph 78% 0 in 91 W/m2
16:55 46.8 °F 41 °F 29.9 in NW 4 mph 7 mph 80% 0 in 81 W/m2
17:00 46.8 °F 40.8 °F 29.9 in NNW 1 mph 6 mph 80% 0 in 76 W/m2
17:05 46.6 °F 40.6 °F 29.9 in NW 2 mph 6 mph 80% 0 in 63 W/m2
17:10 46.2 °F 40.6 °F 29.9 in North 4 mph 6 mph 81% 0 in 44 W/m2
17:15 45.7 °F 40.1 °F 29.9 in Calm   6 mph 81% 0 in 53 W/m2
17:20 45.5 °F 40.6 °F 29.9 in NW 3 mph 6 mph 83% 0 in 56 W/m2
17:25 45.5 °F 40.6 °F 29.9 in Calm   6 mph 83% 0 in 46 W/m2
17:30 45.7 °F 40.5 °F 29.9 in Calm   6 mph 82% 0 in 40 W/m2
17:35 45.7 °F 40.8 °F 29.9 in NW 4 mph 6 mph 83% 0 in 28 W/m2
17:40 45.5 °F 41 °F 29.9 in WNW 4 mph 6 mph 84% 0 in 21 W/m2
17:45 45.7 °F 40.5 °F 29.9 in NW 3 mph 8 mph 82% 0 in 26 W/m2
17:50 45.7 °F 40.5 °F 29.9 in NW 3 mph 8 mph 82% 0 in 25 W/m2
17:55 45.3 °F 40.3 °F 29.9 in NW 4 mph 12 mph 82% 0 in 21 W/m2
18:00 45.1 °F 39.9 °F 30 in North 7 mph 12 mph 82% 0 in 19 W/m2
18:05 44.8 °F 38.7 °F 30 in NNW 1 mph 11 mph 79% 0 in 16 W/m2
18:10 44.4 °F 38.3 °F 30 in WNW 2 mph 14 mph 79% 0 in 12 W/m2
18:15 44.1 °F 37.8 °F 30 in NW 4 mph 14 mph 78% 0 in 9 W/m2
18:20 43.9 °F 37.8 °F 30 in NNW 11 mph 17 mph 79% 0 in 5 W/m2
18:25 43.9 °F 37.8 °F 30 in NW 7 mph 17 mph 79% 0 in 0 W/m2
18:30 43.7 °F 37.6 °F 30 in North 6 mph 13 mph 79% 0 in 0 W/m2
18:35 43.5 °F 37.6 °F 30 in NNW 7 mph 14 mph 79% 0 in 0 W/m2
18:40 43.3 °F 37.6 °F 30 in NNE 3 mph 14 mph 80% 0 in 0 W/m2
18:45 43 °F 37.6 °F 30 in NNW 4 mph 12 mph 81% 0 in 0 W/m2
18:50 42.6 °F 37.4 °F 30 in North 4 mph 12 mph 82% 0 in 0 W/m2
18:55 42.4 °F 37.4 °F 30 in Calm   10 mph 82% 0 in 0 W/m2
19:00 42.3 °F 37.4 °F 30 in NW 4 mph 8 mph 83% 0 in 0 W/m2
19:05 42.3 °F 37 °F 30 in North 3 mph 8 mph 82% 0 in 0 W/m2
19:10 42.1 °F 37.2 °F 30 in NW 1 mph 8 mph 83% 0 in 0 W/m2
19:15 41.9 °F 37 °F 30 in NNW 4 mph 8 mph 83% 0 in 0 W/m2
19:20 41.5 °F 36.9 °F 30 in NW 2 mph 8 mph 83% 0 in 0 W/m2
19:25 41.5 °F 36.7 °F 30 in NW 3 mph 8 mph 83% 0 in 0 W/m2
19:30 41 °F 36.5 °F 30 in NW 4 mph 8 mph 84% 0 in 0 W/m2
19:35 40.8 °F 36.5 °F 30 in NW 2 mph 6 mph 84% 0 in 0 W/m2
19:40 40.8 °F 36.3 °F 30 in WNW 2 mph 6 mph 84% 0 in 0 W/m2
19:45 40.8 °F 36.3 °F 30 in Calm   7 mph 84% 0 in 0 W/m2
19:50 40.8 °F 36.1 °F 30 in WNW 2 mph 10 mph 83% 0 in 0 W/m2
19:55 41.2 °F 36 °F 30 in NW 6 mph 10 mph 82% 0 in 0 W/m2
20:00 40.6 °F 35.2 °F 30 in NW 2 mph 8 mph 81% 0 in 0 W/m2
20:05 39.9 °F 34.7 °F 30 in NNW 1 mph 8 mph 81% 0 in 0 W/m2
20:10 39.6 °F 34.5 °F 30 in WNW 3 mph 8 mph 82% 0 in 0 W/m2
20:15 39.4 °F 34.3 °F 30 in NNW 4 mph 7 mph 82% 0 in 0 W/m2
20:20 39.4 °F 34 °F 30 in WNW 3 mph 14 mph 81% 0 in 0 W/m2
20:25 39.6 °F 34.2 °F 30 in NNW 6 mph 14 mph 81% 0 in 0 W/m2
20:30 39.4 °F 33.8 °F 30 in NW 2 mph 12 mph 80% 0 in 0 W/m2
20:35 39.4 °F 34 °F 30 in NW 2 mph 11 mph 81% 0 in 0 W/m2
20:40 38.8 °F 33.6 °F 30 in WNW 3 mph 11 mph 81% 0 in 0 W/m2
20:45 38.8 °F 33.8 °F 30 in NNW 4 mph 12 mph 82% 0 in 0 W/m2
20:50 38.7 °F 33.6 °F 30 in North 6 mph 12 mph 82% 0 in 0 W/m2
20:55 38.5 °F 33.8 °F 30 in WNW 1 mph 11 mph 83% 0 in 0 W/m2
21:00 38.5 °F 34.2 °F 30.1 in NW 9 mph 11 mph 84% 0 in 0 W/m2
21:05 38.5 °F 34 °F 30.1 in NNW 2 mph 9 mph 84% 0 in 0 W/m2
21:10 38.1 °F 34.2 °F 30.1 in North 3 mph 9 mph 85% 0 in 0 W/m2
21:15 37.9 °F 33.8 °F 30.1 in WNW 4 mph 9 mph 85% 0 in 0 W/m2
21:20 38.1 °F 34.3 °F 30.1 in WNW 9 mph 17 mph 86% 0 in 0 W/m2
21:30 38.3 °F 34.2 °F 30.1 in Calm   14 mph 85% 0 in 0 W/m2
21:35 37.9 °F 33.8 °F 30.1 in NW 3 mph 12 mph 85% 0 in 0 W/m2
21:40 37.6 °F 33.8 °F 30.1 in NNW 3 mph 10 mph 86% 0 in 0 W/m2
21:45 37.2 °F 33.4 °F 30.1 in NNW 1 mph 10 mph 86% 0 in 0 W/m2
21:50 37 °F 33.3 °F 30.1 in NNW 1 mph 10 mph 86% 0 in 0 W/m2
21:55 36.9 °F 33.3 °F 30.1 in NNW 2 mph 10 mph 87% 0 in 0 W/m2
22:00 36.5 °F 33.1 °F 30.1 in NW 2 mph 8 mph 87% 0 in 0 W/m2
22:10 36.3 °F 33.1 °F 30.1 in NW 3 mph 7 mph 88% 0 in 0 W/m2
22:15 36 °F 32.7 °F 30.1 in WNW 2 mph 7 mph 88% 0 in 0 W/m2
22:20 35.8 °F 32.5 °F 30.1 in Calm   7 mph 88% 0 in 0 W/m2
22:25 36 °F 32.9 °F 30.1 in NW 2 mph 6 mph 89% 0 in 0 W/m2
22:30 35.8 °F 32.9 °F 30.1 in WNW 1 mph 5 mph 89% 0 in 0 W/m2
22:35 36 °F 32.9 °F 30.1 in NW 2 mph 6 mph 89% 0 in 0 W/m2
22:40 36 °F 32.9 °F 30.1 in NW 4 mph 6 mph 89% 0 in 0 W/m2
22:45 35.8 °F 32.7 °F 30.1 in WNW 1 mph 6 mph 89% 0 in 0 W/m2
22:50 35.6 °F 32.7 °F 30.1 in WNW 2 mph 5 mph 89% 0 in 0 W/m2
22:55 35.8 °F 33.1 °F 30.1 in WNW 2 mph 5 mph 90% 0 in 0 W/m2
23:00 35.2 °F 32.4 °F 30.1 in WNW 4 mph 5 mph 89% 0 in 0 W/m2
23:05 34.9 °F 32.2 °F 30.1 in WNW 3 mph 5 mph 90% 0 in 0 W/m2
23:10 34.9 °F 32.2 °F 30.1 in WNW 1 mph 7 mph 90% 0 in 0 W/m2
23:15 35.1 °F 32.7 °F 30.1 in WNW 4 mph 7 mph 91% 0 in 0 W/m2
23:20 35.2 °F 32.9 °F 30.1 in NW 4 mph 7 mph 91% 0 in 0 W/m2
23:25 35.2 °F 32.9 °F 30.1 in WNW 3 mph 7 mph 91% 0 in 0 W/m2
23:30 35.6 °F 33.4 °F 30.1 in NW 2 mph 6 mph 92% 0 in 0 W/m2
23:35 35.8 °F 33.6 °F 30.1 in WNW 2 mph 8 mph 92% 0 in 0 W/m2
23:40 35.8 °F 33.6 °F 30.1 in NW 5 mph 8 mph 92% 0 in 0 W/m2
23:45 35.8 °F 33.6 °F 30.1 in NW 2 mph 8 mph 92% 0 in 0 W/m2
23:50 36 °F 34 °F 30.1 in NW 5 mph 8 mph 92% 0 in 0 W/m2
23:55 36.1 °F 34 °F 30.1 in NW 1 mph 6 mph 92% 0 in 0 W/m2